Time;durP1;ratioP1;P1;durP2;ratioP2;P2;SDS_P1;SDS_P2;PMS_P1;PMS_P2;Temp;Humidity;BMP_temperature;BMP_pressure;BME280_temperature;BME280_humidity;BME280_pressure;Samples;Min_cycle;Max_cycle;Signal;HPM_P1;HPM_P2
2022/09/11 00:01:35;;;;;;;4.80;1.90;;;;;;;;;;4945041;29;20055;-65
2022/09/11 00:04:02;;;;;;;5.07;1.85;;;;;;;;;;4945827;29;20050;-64
2022/09/11 00:06:29;;;;;;;9.63;2.30;;;;;;;;;;4944928;28;20147;-65
2022/09/11 00:08:59;;;;;;;5.68;1.90;;;;;;;;;;4944861;28;20047;-67
2022/09/11 00:11:30;;;;;;;8.35;1.95;;;;;;;;;;4926507;29;20051;-65
2022/09/11 00:13:57;;;;;;;13.05;2.17;;;;;;;;;;4944382;29;20048;-67
2022/09/11 00:16:28;;;;;;;6.55;1.90;;;;;;;;;;4944265;29;20061;-66
2022/09/11 00:18:57;;;;;;;6.70;2.47;;;;;;;;;;4943545;29;20114;-66
2022/09/11 00:21:24;;;;;;;11.05;2.35;;;;;;;;;;4925845;29;20055;-65
2022/09/11 00:23:50;;;;;;;4.25;1.83;;;;;;;;;;4942849;28;20793;-66
2022/09/11 00:26:16;;;;;;;6.07;2.28;;;;;;;;;;4944376;28;20155;-64
2022/09/11 00:28:44;;;;;;;4.95;2.35;;;;;;;;;;4943948;29;20071;-65
2022/09/11 00:31:15;;;;;;;6.47;2.30;;;;;;;;;;4942620;28;20055;-63
2022/09/11 00:33:41;;;;;;;8.85;2.17;;;;;;;;;;4944887;29;20130;-67
2022/09/11 00:36:14;;;;;;;7.28;2.20;;;;;;;;;;4943562;29;20050;-64
2022/09/11 00:38:41;;;;;;;5.05;2.05;;;;;;;;;;4945792;29;20591;-64
2022/09/11 00:41:21;;;;;;;5.22;2.15;;;;;;;;;;4944349;28;20050;-64
2022/09/11 00:44:11;;;;;;;5.50;2.30;;;;;;;;;;4945024;28;20059;-65
2022/09/11 00:46:44;;;;;;;10.80;2.45;;;;;;;;;;4947213;28;20356;-66
2022/09/11 00:49:38;;;;;;;6.78;2.00;;;;;;;;;;4943577;28;20054;-64
2022/09/11 00:52:16;;;;;;;3.85;1.80;;;;;;;;;;4941885;28;20059;-64
2022/09/11 00:54:45;;;;;;;7.95;2.08;;;;;;;;;;4941535;28;20513;-69
2022/09/11 00:57:11;;;;;;;5.15;2.20;;;;;;;;;;4942871;28;20520;-65
2022/09/11 00:59:42;;;;;;;7.88;1.80;;;;;;;;;;4941632;28;20136;-75
2022/09/11 01:02:12;;;;;;;6.55;2.38;;;;;;;;;;4943923;28;20162;-75
2022/09/11 01:04:38;;;;;;;7.50;2.22;;;;;;;;;;4944205;28;20061;-77
2022/09/11 01:07:04;;;;;;;7.40;2.00;;;;;;;;;;4939010;28;20043;-75
2022/09/11 01:09:32;;;;;;;5.00;1.92;;;;;;;;;;4940769;28;20597;-77
2022/09/11 01:12:12;;;;;;;11.10;2.20;;;;;;;;;;4940520;28;20039;-76
2022/09/11 01:14:59;;;;;;;9.93;2.47;;;;;;;;;;4942851;28;20550;-74
2022/09/11 01:17:47;;;;;;;8.95;2.20;;;;;;;;;;4942329;28;20078;-73
2022/09/11 01:20:22;;;;;;;9.65;2.28;;;;;;;;;;4926793;28;20484;-75
2022/09/11 01:23:23;;;;;;;7.20;2.40;;;;;;;;;;4942189;28;20106;-75
2022/09/11 01:26:07;;;;;;;5.00;2.25;;;;;;;;;;4946238;28;20047;-75
2022/09/11 01:28:56;;;;;;;6.30;2.40;;;;;;;;;;4946593;29;20373;-74
2022/09/11 01:31:29;;;;;;;5.35;2.72;;;;;;;;;;4946294;29;20082;-77
2022/09/11 01:34:22;;;;;;;5.78;2.55;;;;;;;;;;4945033;28;20102;-76
2022/09/11 01:36:54;;;;;;;7.15;2.60;;;;;;;;;;4945648;29;20094;-75
2022/09/11 01:39:23;;;;;;;6.30;2.80;;;;;;;;;;4945844;29;20083;-74
2022/09/11 01:42:01;;;;;;;7.55;2.83;;;;;;;;;;4944919;29;20130;-75
2022/09/11 01:44:38;;;;;;;10.73;2.90;;;;;;;;;;4944718;29;20493;-76
2022/09/11 01:47:09;;;;;;;8.35;2.90;;;;;;;;;;4944437;29;20464;-75
2022/09/11 01:49:47;;;;;;;8.05;3.38;;;;;;;;;;4944352;28;20047;-75
2022/09/11 01:52:28;;;;;;;7.78;3.13;;;;;;;;;;4941783;28;20087;-74
2022/09/11 01:55:02;;;;;;;6.28;2.92;;;;;;;;;;4945831;29;20133;-76
2022/09/11 01:57:38;;;;;;;;;;;;;;;;;;4944779;28;20480;-75
2022/09/11 02:00:08;;;;;;;6.63;3.20;;;;;;;;;;4943773;29;20001;-77
2022/09/11 02:02:38;;;;;;;7.95;2.95;;;;;;;;;;4946645;29;20241;-74
2022/09/11 02:05:09;;;;;;;9.95;3.22;;;;;;;;;;4939775;29;20043;-75
2022/09/11 02:07:44;;;;;;;6.97;2.80;;;;;;;;;;4945533;28;20047;-75
2022/09/11 02:10:13;;;;;;;;;;;;;;;;;;4946472;29;20079;-73
2022/09/11 02:12:51;;;;;;;7.03;3.00;;;;;;;;;;4945931;29;20811;-74
2022/09/11 02:15:18;;;;;;;7.53;2.60;;;;;;;;;;4944854;29;20070;-74
2022/09/11 02:17:52;;;;;;;7.10;3.00;;;;;;;;;;4946162;28;21141;-73
2022/09/11 02:20:19;;;;;;;;;;;;;;;;;;4945947;29;20476;-73
2022/09/11 02:22:47;;;;;;;5.75;2.42;;;;;;;;;;4946451;29;19930;-74
2022/09/11 02:25:13;;;;;;;6.22;2.63;;;;;;;;;;4944051;28;20173;-74
2022/09/11 02:27:39;;;;;;;7.00;2.90;;;;;;;;;;4944837;29;20449;-74
2022/09/11 02:30:06;;;;;;;8.38;2.65;;;;;;;;;;4941885;29;20054;-74
2022/09/11 02:32:35;;;;;;;7.38;2.55;;;;;;;;;;4944501;29;20500;-74
2022/09/11 02:35:02;;;;;;;5.97;2.78;;;;;;;;;;4943870;29;20066;-74
2022/09/11 02:38:14;;;;;;;8.73;2.55;;;;;;;;;;4944761;29;20103;-75
2022/09/11 02:41:01;;;;;;;10.98;2.50;;;;;;;;;;4928187;29;20117;-73
2022/09/11 02:43:49;;;;;;;6.68;2.65;;;;;;;;;;4930114;29;20069;-74
2022/09/11 02:46:28;;;;;;;11.02;3.30;;;;;;;;;;4927040;29;20359;-75
2022/09/11 02:49:25;;;;;;;8.85;2.50;;;;;;;;;;4931954;29;20055;-74
2022/09/11 02:52:09;;;;;;;6.75;2.30;;;;;;;;;;4926131;29;20494;-74
2022/09/11 02:54:52;;;;;;;6.97;2.70;;;;;;;;;;4914719;29;20144;-73
2022/09/11 02:57:26;;;;;;;7.15;2.53;;;;;;;;;;4920637;29;20047;-74
2022/09/11 03:00:01;;;;;;;4.90;2.60;;;;;;;;;;4933822;29;20473;-73
2022/09/11 03:02:29;;;;;;;5.75;2.70;;;;;;;;;;4930130;29;20066;-75
2022/09/11 03:04:56;;;;;;;7.88;2.85;;;;;;;;;;4925431;29;20055;-78
2022/09/11 03:07:24;;;;;;;5.60;2.95;;;;;;;;;;4935924;28;21248;-75
2022/09/11 03:09:51;;;;;;;9.90;2.90;;;;;;;;;;4916352;29;20612;-75
2022/09/11 03:12:17;;;;;;;6.88;2.70;;;;;;;;;;4941687;29;20063;-75
2022/09/11 03:14:43;;;;;;;10.48;2.83;;;;;;;;;;4945894;29;20425;-76
2022/09/11 03:17:09;;;;;;;8.07;2.55;;;;;;;;;;4951070;28;20114;-74
2022/09/11 03:19:35;;;;;;;5.00;2.70;;;;;;;;;;4946468;29;20154;-76
2022/09/11 03:22:02;;;;;;;9.60;2.40;;;;;;;;;;4944317;29;20501;-77
2022/09/11 03:24:28;;;;;;;4.78;2.50;;;;;;;;;;4944625;28;20081;-75
2022/09/11 03:26:54;;;;;;;3.92;2.50;;;;;;;;;;4944603;29;20137;-74
2022/09/11 03:29:20;;;;;;;7.18;2.80;;;;;;;;;;4946051;29;20146;-74
2022/09/11 03:31:46;;;;;;;5.93;2.55;;;;;;;;;;4946142;29;20153;-73
2022/09/11 03:34:12;;;;;;;5.72;2.58;;;;;;;;;;4926831;29;20098;-73
2022/09/11 03:36:39;;;;;;;5.53;2.40;;;;;;;;;;4944630;29;20071;-74
2022/09/11 03:39:05;;;;;;;4.45;2.42;;;;;;;;;;4944997;29;20098;-72
2022/09/11 03:41:31;;;;;;;6.32;2.50;;;;;;;;;;4944160;28;20078;-76
2022/09/11 03:43:57;;;;;;;5.55;2.40;;;;;;;;;;4946101;29;20114;-74
2022/09/11 03:46:24;;;;;;;6.20;2.53;;;;;;;;;;4947003;29;20062;-75
2022/09/11 03:48:51;;;;;;;3.20;2.08;;;;;;;;;;4945755;29;20079;-72
2022/09/11 03:51:17;;;;;;;5.38;2.00;;;;;;;;;;4946558;28;20499;-74
2022/09/11 03:53:43;;;;;;;7.15;2.60;;;;;;;;;;4945127;29;20476;-74
2022/09/11 03:56:10;;;;;;;4.43;2.40;;;;;;;;;;4943933;28;20067;-75
2022/09/11 03:58:36;;;;;;;8.60;2.60;;;;;;;;;;4945430;29;20062;-73
2022/09/11 04:01:11;;;;;;;9.80;2.35;;;;;;;;;;4941614;29;20052;-72
2022/09/11 04:03:39;;;;;;;5.22;2.00;;;;;;;;;;4946634;29;20043;-74
2022/09/11 04:06:05;;;;;;;7.82;2.45;;;;;;;;;;4943774;29;20051;-72
2022/09/11 04:08:32;;;;;;;4.60;2.10;;;;;;;;;;4945299;28;20078;-76
2022/09/11 04:11:04;;;;;;;8.57;2.15;;;;;;;;;;4948536;28;20081;-74
2022/09/11 04:13:32;;;;;;;4.25;2.22;;;;;;;;;;4944209;28;20043;-74
2022/09/11 04:16:03;;;;;;;4.47;2.42;;;;;;;;;;4945967;29;20539;-74
2022/09/11 04:18:31;;;;;;;7.22;2.00;;;;;;;;;;4944903;29;20050;-73
2022/09/11 04:20:57;;;;;;;5.78;2.53;;;;;;;;;;4945445;28;20349;-73
2022/09/11 04:23:24;;;;;;;3.47;2.15;;;;;;;;;;4948421;28;20055;-74
2022/09/11 04:25:50;;;;;;;7.32;2.60;;;;;;;;;;4948444;29;20055;-75
2022/09/11 04:28:15;;;;;;;7.50;2.53;;;;;;;;;;4956470;28;20498;-74
2022/09/11 04:30:41;;;;;;;3.88;2.10;;;;;;;;;;4949057;28;20673;-73
2022/09/11 04:33:07;;;;;;;6.65;2.20;;;;;;;;;;4950867;29;20051;-74
2022/09/11 04:35:38;;;;;;;9.45;2.40;;;;;;;;;;4947693;29;20647;-75
2022/09/11 04:38:04;;;;;;;6.50;2.53;;;;;;;;;;4945014;29;20055;-73
2022/09/11 04:40:32;;;;;;;6.63;2.50;;;;;;;;;;4947231;28;20072;-72
2022/09/11 04:42:59;;;;;;;5.43;2.40;;;;;;;;;;4948469;29;20081;-74
2022/09/11 04:45:26;;;;;;;6.97;2.40;;;;;;;;;;4947168;29;20055;-74
2022/09/11 04:47:52;;;;;;;5.22;2.40;;;;;;;;;;4945275;28;20070;-74
2022/09/11 04:50:18;;;;;;;7.97;2.40;;;;;;;;;;4945282;29;20047;-74
2022/09/11 04:52:45;;;;;;;4.30;1.90;;;;;;;;;;4948967;29;20142;-73
2022/09/11 04:55:11;;;;;;;5.95;2.45;;;;;;;;;;4946678;29;20055;-72
2022/09/11 04:57:37;;;;;;;4.82;2.30;;;;;;;;;;4946855;28;20512;-76
2022/09/11 05:00:05;;;;;;;6.90;2.80;;;;;;;;;;4944789;28;20047;-79
2022/09/11 05:02:32;;;;;;;5.35;2.10;;;;;;;;;;4946791;28;20070;-72
2022/09/11 05:04:58;;;;;;;6.45;1.83;;;;;;;;;;4945781;29;20158;-74
2022/09/11 05:07:24;;;;;;;4.55;2.15;;;;;;;;;;4946810;29;20524;-73
2022/09/11 05:09:53;;;;;;;5.15;1.88;;;;;;;;;;4947745;29;20055;-73
2022/09/11 05:12:22;;;;;;;4.57;2.15;;;;;;;;;;4927288;29;20234;-72
2022/09/11 05:14:48;;;;;;;4.03;2.20;;;;;;;;;;4950367;28;20165;-73
2022/09/11 05:17:14;;;;;;;3.95;2.60;;;;;;;;;;4947938;29;21581;-75
2022/09/11 05:19:40;;;;;;;11.68;2.50;;;;;;;;;;4944434;28;20123;-76
2022/09/11 05:22:06;;;;;;;6.32;2.20;;;;;;;;;;4945026;29;20053;-75
2022/09/11 05:24:32;;;;;;;6.90;2.20;;;;;;;;;;4948393;29;20627;-74
2022/09/11 05:26:58;;;;;;;7.22;2.40;;;;;;;;;;4948730;29;20277;-73
2022/09/11 05:29:28;;;;;;;4.72;2.40;;;;;;;;;;4944433;28;20062;-73
2022/09/11 05:31:54;;;;;;;4.55;2.25;;;;;;;;;;4944562;28;20051;-73
2022/09/11 05:34:21;;;;;;;7.57;2.13;;;;;;;;;;4946282;29;20428;-76
2022/09/11 05:36:47;;;;;;;5.93;2.03;;;;;;;;;;4947772;29;20070;-73
2022/09/11 05:39:12;;;;;;;5.65;2.03;;;;;;;;;;4948545;29;20047;-76
2022/09/11 05:41:38;;;;;;;3.53;2.22;;;;;;;;;;4943713;29;20048;-76
2022/09/11 05:44:04;;;;;;;4.20;2.10;;;;;;;;;;4946285;29;20062;-75
2022/09/11 05:46:30;;;;;;;5.07;2.40;;;;;;;;;;4928236;29;20531;-76
2022/09/11 05:48:57;;;;;;;4.82;2.20;;;;;;;;;;4947514;28;20047;-77
2022/09/11 05:51:23;;;;;;;8.85;2.13;;;;;;;;;;4944207;29;20134;-73
2022/09/11 05:53:54;;;;;;;5.50;2.30;;;;;;;;;;4944689;28;20465;-75
2022/09/11 05:56:22;;;;;;;8.13;2.08;;;;;;;;;;4948615;29;20158;-74
2022/09/11 05:58:51;;;;;;;6.05;2.17;;;;;;;;;;4945789;29;20187;-73
2022/09/11 06:01:20;;;;;;;4.35;2.20;;;;;;;;;;4943395;29;20055;-74
2022/09/11 06:03:48;;;;;;;5.72;2.60;;;;;;;;;;4945503;28;20065;-75
2022/09/11 06:06:16;;;;;;;7.60;2.70;;;;;;;;;;4942757;28;20087;-75
2022/09/11 06:08:46;;;;;;;7.75;2.53;;;;;;;;;;4947746;29;20051;-74
2022/09/11 06:11:14;;;;;;;4.45;2.03;;;;;;;;;;4942586;29;20055;-74
2022/09/11 06:13:42;;;;;;;7.65;2.58;;;;;;;;;;4944102;29;20055;-77
2022/09/11 06:16:10;;;;;;;3.05;2.33;;;;;;;;;;4943549;29;20055;-71
2022/09/11 06:18:36;;;;;;;3.78;2.30;;;;;;;;;;4946497;28;20055;-74
2022/09/11 06:21:06;;;;;;;4.65;2.42;;;;;;;;;;4945705;29;20090;-75
2022/09/11 06:23:36;;;;;;;5.47;2.20;;;;;;;;;;4945162;28;20493;-75
2022/09/11 06:26:07;;;;;;;6.57;2.42;;;;;;;;;;4944602;28;20044;-76
2022/09/11 06:28:35;;;;;;;9.20;3.08;;;;;;;;;;4942116;29;20102;-73
2022/09/11 06:31:02;;;;;;;5.10;2.40;;;;;;;;;;4926350;29;20062;-74
2022/09/11 06:33:38;;;;;;;9.75;2.60;;;;;;;;;;4943990;28;20057;-73
2022/09/11 06:36:07;;;;;;;6.50;2.60;;;;;;;;;;4944324;29;20473;-74
2022/09/11 06:38:33;;;;;;;6.63;2.35;;;;;;;;;;4944262;29;20039;-74
2022/09/11 06:41:03;;;;;;;7.30;2.40;;;;;;;;;;4942084;28;20046;-72
2022/09/11 06:43:30;;;;;;;5.45;2.25;;;;;;;;;;4943976;28;20529;-74
2022/09/11 06:46:03;;;;;;;6.90;2.38;;;;;;;;;;4945381;29;20069;-73
2022/09/11 06:48:29;;;;;;;5.80;2.60;;;;;;;;;;4946432;29;20047;-75
2022/09/11 06:50:56;;;;;;;6.13;2.25;;;;;;;;;;4943324;29;20066;-74
2022/09/11 06:53:22;;;;;;;4.15;2.22;;;;;;;;;;4942169;28;20074;-76
2022/09/11 06:55:47;;;;;;;7.07;2.30;;;;;;;;;;4946534;29;20078;-75
2022/09/11 06:58:14;;;;;;;4.25;2.15;;;;;;;;;;4950379;28;20055;-74
2022/09/11 07:00:40;;;;;;;4.97;2.22;;;;;;;;;;4943315;28;20516;-74
2022/09/11 07:03:06;;;;;;;4.50;2.10;;;;;;;;;;4946945;28;20166;-75
2022/09/11 07:05:32;;;;;;;8.60;1.90;;;;;;;;;;4945947;28;20043;-74
2022/09/11 07:07:58;;;;;;;8.93;2.38;;;;;;;;;;4947801;29;20490;-74
2022/09/11 07:10:24;;;;;;;6.05;2.53;;;;;;;;;;4945503;29;20157;-74
2022/09/11 07:12:54;;;;;;;8.32;2.10;;;;;;;;;;4947497;29;20047;-72
2022/09/11 07:15:20;;;;;;;6.47;2.20;;;;;;;;;;4956283;28;20063;-72
2022/09/11 07:17:47;;;;;;;4.38;2.08;;;;;;;;;;4952183;28;20055;-75
2022/09/11 07:20:13;;;;;;;5.32;2.20;;;;;;;;;;4945026;29;20086;-75
2022/09/11 07:22:39;;;;;;;7.30;2.60;;;;;;;;;;4945027;28;20098;-75
2022/09/11 07:25:06;;;;;;;11.07;3.90;;;;;;;;;;4946967;29;20482;-75
2022/09/11 07:27:32;;;;;;;9.82;2.70;;;;;;;;;;4946964;29;20188;-76
2022/09/11 07:29:58;;;;;;;9.02;2.88;;;;;;;;;;4945155;29;20047;-75
2022/09/11 07:32:25;;;;;;;12.88;4.13;;;;;;;;;;4948920;28;20051;-80
2022/09/11 07:34:51;;;;;;;14.35;2.85;;;;;;;;;;4945980;29;20134;-75
2022/09/11 07:37:17;;;;;;;6.63;2.85;;;;;;;;;;4946299;28;20146;-76
2022/09/11 07:39:43;;;;;;;10.38;2.67;;;;;;;;;;4947651;29;20456;-74
2022/09/11 07:42:09;;;;;;;5.15;2.70;;;;;;;;;;4947512;29;20058;-75
2022/09/11 07:44:35;;;;;;;5.20;2.83;;;;;;;;;;4945762;28;20059;-75
2022/09/11 07:47:02;;;;;;;6.88;3.08;;;;;;;;;;4949618;29;20520;-74
2022/09/11 07:49:29;;;;;;;6.72;2.33;;;;;;;;;;4930882;29;20047;-74
2022/09/11 07:51:54;;;;;;;7.30;2.47;;;;;;;;;;4948931;28;20137;-78
2022/09/11 07:54:21;;;;;;;5.72;2.75;;;;;;;;;;4947263;28;20113;-77
2022/09/11 07:56:47;;;;;;;11.55;3.38;;;;;;;;;;4948537;29;20174;-77
2022/09/11 07:59:13;;;;;;;6.00;2.58;;;;;;;;;;4945690;28;20516;-73
2022/09/11 08:01:41;;;;;;;9.07;2.47;;;;;;;;;;4927180;29;20395;-77
2022/09/11 08:04:10;;;;;;;7.47;2.75;;;;;;;;;;4943332;28;20055;-76
2022/09/11 08:06:37;;;;;;;19.90;3.10;;;;;;;;;;4949319;28;20051;-80
2022/09/11 08:09:05;;;;;;;6.40;2.50;;;;;;;;;;4950050;29;20493;-79
2022/09/11 08:11:35;;;;;;;8.32;2.63;;;;;;;;;;4955854;28;20218;-75
2022/09/11 08:14:01;;;;;;;5.10;2.40;;;;;;;;;;4945866;29;20077;-77
2022/09/11 08:16:27;;;;;;;7.07;2.25;;;;;;;;;;4943015;28;20599;-77
2022/09/11 08:18:53;;;;;;;9.07;2.88;;;;;;;;;;4943695;28;20043;-78
2022/09/11 08:21:20;;;;;;;4.53;2.08;;;;;;;;;;4942630;28;20090;-78
2022/09/11 08:23:46;;;;;;;6.22;2.42;;;;;;;;;;4946018;29;20062;-79
2022/09/11 08:26:16;;;;;;;6.10;2.17;;;;;;;;;;4940054;29;20300;-76
2022/09/11 08:28:43;;;;;;;7.07;2.20;;;;;;;;;;4942225;28;20051;-77
2022/09/11 08:31:11;;;;;;;6.30;2.15;;;;;;;;;;4940935;29;20046;-78
2022/09/11 08:33:38;;;;;;;4.30;2.47;;;;;;;;;;4943516;29;20280;-78
2022/09/11 08:36:07;;;;;;;4.90;2.10;;;;;;;;;;4942994;28;20066;-76
2022/09/11 08:38:33;;;;;;;8.65;2.13;;;;;;;;;;4948663;28;20046;-76
2022/09/11 08:41:11;;;;;;;8.43;2.33;;;;;;;;;;4943331;29;20155;-77
2022/09/11 08:43:46;;;;;;;12.05;2.35;;;;;;;;;;4946084;28;20101;-79
2022/09/11 08:46:13;;;;;;;8.32;2.22;;;;;;;;;;4943248;28;20075;-78
2022/09/11 08:49:03;;;;;;;5.50;2.30;;;;;;;;;;4945227;28;20075;-77
2022/09/11 08:51:30;;;;;;;5.93;2.00;;;;;;;;;;4947172;28;20512;-80
2022/09/11 08:54:01;;;;;;;6.78;2.20;;;;;;;;;;4929195;29;20058;-76
2022/09/11 08:56:29;;;;;;;8.98;2.50;;;;;;;;;;4947360;28;20456;-76
2022/09/11 08:59:06;;;;;;;12.25;2.70;;;;;;;;;;4947992;29;20083;-78
2022/09/11 09:01:48;;;;;;;8.52;2.38;;;;;;;;;;4942609;28;20445;-76
2022/09/11 09:04:29;;;;;;;5.20;2.20;;;;;;;;;;4947345;29;20067;-77
2022/09/11 09:07:13;;;;;;;6.75;1.90;;;;;;;;;;4952746;28;20498;-78
2022/09/11 09:09:48;;;;;;;8.77;2.13;;;;;;;;;;4951390;29;20410;-77
2022/09/11 09:12:39;;;;;;;6.50;2.40;;;;;;;;;;4952638;28;20082;-77
2022/09/11 09:15:31;;;;;;;9.00;2.50;;;;;;;;;;4950760;29;20051;-77
2022/09/11 09:18:21;;;;;;;8.40;1.92;;;;;;;;;;4948600;28;20698;-78
2022/09/11 09:21:01;;;;;;;8.15;2.20;;;;;;;;;;4945767;29;20991;-76
2022/09/11 09:23:42;;;;;;;7.10;2.28;;;;;;;;;;4951552;29;20086;-79
2022/09/11 09:26:16;;;;;;;8.70;2.45;;;;;;;;;;4931255;29;20403;-78
2022/09/11 09:28:46;;;;;;;8.23;3.53;;;;;;;;;;4950279;29;20180;-77
2022/09/11 09:31:19;;;;;;;4.65;2.00;;;;;;;;;;4947406;28;20063;-80
2022/09/11 09:34:03;;;;;;;5.13;1.80;;;;;;;;;;4950275;28;20059;-78
2022/09/11 09:36:36;;;;;;;5.63;2.45;;;;;;;;;;4946481;28;20126;-78
2022/09/11 09:39:11;;;;;;;6.68;2.08;;;;;;;;;;4947514;28;20505;-78
2022/09/11 09:42:07;;;;;;;9.35;2.00;;;;;;;;;;4944455;29;20565;-75
2022/09/11 09:44:49;;;;;;;7.65;2.00;;;;;;;;;;4939373;28;20145;-77
2022/09/11 09:47:16;;;;;;;5.85;2.10;;;;;;;;;;4949935;28;20065;-77
2022/09/11 09:49:43;;;;;;;6.15;2.25;;;;;;;;;;4953144;28;20055;-79
2022/09/11 09:52:21;;;;;;;7.18;2.03;;;;;;;;;;4945348;29;20146;-76
2022/09/11 09:54:58;;;;;;;10.80;2.15;;;;;;;;;;4948493;28;20065;-78
2022/09/11 09:57:36;;;;;;;6.10;2.00;;;;;;;;;;4951577;29;20058;-79
2022/09/11 10:00:08;;;;;;;8.10;2.05;;;;;;;;;;4947140;29;20058;-77
2022/09/11 10:02:39;;;;;;;6.72;1.95;;;;;;;;;;4943273;28;20163;-78
2022/09/11 10:05:15;;;;;;;8.27;2.17;;;;;;;;;;4945732;28;20379;-79
2022/09/11 10:08:02;;;;;;;7.05;1.80;;;;;;;;;;4949353;29;20047;-78
2022/09/11 10:10:36;;;;;;;9.00;2.30;;;;;;;;;;4943910;29;20125;-78
2022/09/11 10:13:15;;;;;;;7.20;1.98;;;;;;;;;;4946223;29;20097;-76
2022/09/11 10:15:41;;;;;;;5.15;1.98;;;;;;;;;;4928790;29;20047;-78
2022/09/11 10:18:34;;;;;;;4.95;1.60;;;;;;;;;;4953618;28;20075;-79
2022/09/11 10:21:34;;;;;;;10.30;2.20;;;;;;;;;;4950565;28;20061;-78
2022/09/11 10:24:07;;;;;;;8.95;2.00;;;;;;;;;;4931928;29;20110;-78
2022/09/11 10:26:36;;;;;;;5.22;2.00;;;;;;;;;;4943639;29;20062;-78
2022/09/11 10:29:11;;;;;;;7.93;2.22;;;;;;;;;;4947349;29;20274;-78
2022/09/11 10:31:41;;;;;;;7.57;2.05;;;;;;;;;;4943933;29;20060;-78
2022/09/11 10:34:14;;;;;;;7.88;2.10;;;;;;;;;;4949252;29;20043;-78
2022/09/11 10:36:54;;;;;;;7.65;1.95;;;;;;;;;;4945760;29;20051;-79
2022/09/11 10:39:23;;;;;;;7.53;2.15;;;;;;;;;;4950163;28;20312;-78
2022/09/11 10:41:53;;;;;;;6.53;1.95;;;;;;;;;;4947192;29;20065;-79
2022/09/11 10:44:21;;;;;;;8.63;1.85;;;;;;;;;;4949161;29;20174;-79
2022/09/11 10:47:12;;;;;;;7.50;1.98;;;;;;;;;;4947628;29;20110;-80
2022/09/11 10:49:38;;;;;;;5.57;1.83;;;;;;;;;;4945023;29;20417;-77
2022/09/11 10:52:07;;;;;;;7.53;1.90;;;;;;;;;;4942631;29;20073;-79
2022/09/11 10:55:05;;;;;;;6.70;2.10;;;;;;;;;;4947239;28;20049;-78
2022/09/11 10:57:50;;;;;;;5.80;1.85;;;;;;;;;;4947986;28;20078;-76
2022/09/11 11:00:26;;;;;;;7.10;1.92;;;;;;;;;;4943177;29;20821;-77
2022/09/11 11:03:10;;;;;;;4.95;2.08;;;;;;;;;;4948229;29;20604;-79
2022/09/11 11:05:44;;;;;;;5.70;2.47;;;;;;;;;;4944285;28;20501;-78
2022/09/11 11:08:13;;;;;;;6.93;2.03;;;;;;;;;;4948271;28;20581;-78
2022/09/11 11:11:02;;;;;;;6.50;1.85;;;;;;;;;;4944454;29;20491;-78
2022/09/11 11:14:07;;;;;;;4.45;2.03;;;;;;;;;;4949388;28;20599;-78
2022/09/11 11:16:45;;;;;;;5.68;2.25;;;;;;;;;;4927304;29;20051;-77
2022/09/11 11:19:33;;;;;;;6.68;2.15;;;;;;;;;;4908243;29;20047;-77
2022/09/11 11:22:40;;;;;;;7.07;1.83;;;;;;;;;;4921327;29;20069;-79
2022/09/11 11:25:16;;;;;;;6.75;2.40;;;;;;;;;;4884465;29;20108;-79
2022/09/11 11:27:48;;;;;;;4.15;1.90;;;;;;;;;;4885498;29;20075;-78
2022/09/11 11:30:18;;;;;;;3.95;1.77;;;;;;;;;;4881383;29;20114;-77
2022/09/11 11:33:02;;;;;;;8.23;1.90;;;;;;;;;;4886671;29;20052;-78
2022/09/11 11:36:09;;;;;;;5.75;1.60;;;;;;;;;;4887226;29;20090;-80
2022/09/11 11:38:59;;;;;;;5.57;1.92;;;;;;;;;;4865543;29;20460;-78
2022/09/11 11:41:34;;;;;;;5.53;1.98;;;;;;;;;;4881143;29;20057;-80
2022/09/11 11:44:08;;;;;;;6.30;1.90;;;;;;;;;;4885495;29;20084;-77
2022/09/11 11:46:38;;;;;;;;;;;;;;;;;;4887535;29;20575;-78
2022/09/11 11:49:11;;;;;;;5.55;1.83;;;;;;;;;;4889587;29;20397;-77
2022/09/11 11:51:50;;;;;;;7.50;1.65;;;;;;;;;;4886781;29;20052;-77
2022/09/11 11:54:26;;;;;;;6.15;2.72;;;;;;;;;;4906602;29;20052;-79
2022/09/11 11:56:57;;;;;;;5.03;2.00;;;;;;;;;;4905255;29;20068;-79
2022/09/11 11:59:33;;;;;;;4.80;1.60;;;;;;;;;;4906949;29;20060;-79
2022/09/11 12:02:08;;;;;;;4.53;1.58;;;;;;;;;;4926581;28;20114;-77
2022/09/11 12:04:47;;;;;;;3.83;1.70;;;;;;;;;;4950071;28;20138;-79
2022/09/11 12:07:35;;;;;;;7.43;1.55;;;;;;;;;;4950205;28;20501;-78
2022/09/11 12:10:03;;;;;;;4.03;1.75;;;;;;;;;;4950265;28;20398;-78
2022/09/11 12:12:34;;;;;;;9.95;1.83;;;;;;;;;;4943453;29;20102;-76
2022/09/11 12:15:18;;;;;;;7.85;1.95;;;;;;;;;;4945551;28;20079;-77
2022/09/11 12:17:48;;;;;;;7.18;2.20;;;;;;;;;;4946678;28;20078;-77
2022/09/11 12:20:46;;;;;;;5.82;1.80;;;;;;;;;;4944856;28;20047;-80
2022/09/11 12:23:30;;;;;;;8.15;2.05;;;;;;;;;;4947482;29;20118;-79
2022/09/11 12:26:21;;;;;;;6.32;2.05;;;;;;;;;;4944922;28;20058;-78
2022/09/11 12:29:10;;;;;;;7.25;2.10;;;;;;;;;;4948561;29;20166;-78
2022/09/11 12:31:48;;;;;;;8.55;2.28;;;;;;;;;;4944903;28;20114;-77
2022/09/11 12:34:25;;;;;;;8.23;2.42;;;;;;;;;;4947623;29;20058;-77
2022/09/11 12:36:59;;;;;;;11.43;4.57;;;;;;;;;;4949010;28;20090;-78
2022/09/11 12:39:25;;;;;;;7.38;2.70;;;;;;;;;;4948808;29;20074;-77
2022/09/11 12:41:51;;;;;;;8.15;2.70;;;;;;;;;;4946691;28;20513;-77
2022/09/11 12:44:46;;;;;;;6.13;2.10;;;;;;;;;;4951163;29;20048;-75
2022/09/11 12:47:17;;;;;;;7.43;2.20;;;;;;;;;;4947684;28;20098;-77
2022/09/11 12:49:53;;;;;;;7.03;2.22;;;;;;;;;;4950230;29;20122;-78
2022/09/11 12:52:28;;;;;;;6.03;2.22;;;;;;;;;;4947663;28;20097;-78
2022/09/11 12:54:54;;;;;;;9.40;2.03;;;;;;;;;;4951330;28;20059;-81
2022/09/11 12:57:27;;;;;;;6.97;1.80;;;;;;;;;;4951819;29;20069;-77
2022/09/11 13:00:00;;;;;;;6.68;1.95;;;;;;;;;;4951131;29;20078;-78
2022/09/11 13:02:41;;;;;;;7.78;1.88;;;;;;;;;;4949774;28;20074;-78
2022/09/11 13:05:25;;;;;;;6.32;1.88;;;;;;;;;;4947509;29;20047;-76
2022/09/11 13:07:55;;;;;;;6.68;2.10;;;;;;;;;;4951613;29;20066;-77
2022/09/11 13:10:34;;;;;;;5.40;1.60;;;;;;;;;;4948744;28;20460;-78
2022/09/11 13:13:02;;;;;;;6.60;1.65;;;;;;;;;;4950551;28;20583;-77
2022/09/11 13:15:35;;;;;;;6.88;2.00;;;;;;;;;;4950766;29;20118;-78
2022/09/11 13:18:14;;;;;;;6.80;2.13;;;;;;;;;;4952289;29;20055;-79
2022/09/11 13:20:40;;;;;;;4.55;1.80;;;;;;;;;;4928700;29;20484;-81
2022/09/11 13:23:17;;;;;;;3.88;1.70;;;;;;;;;;4950740;28;20421;-78
2022/09/11 13:25:43;;;;;;;5.05;2.00;;;;;;;;;;4951063;28;20046;-78
2022/09/11 13:28:13;;;;;;;8.13;2.00;;;;;;;;;;4936075;29;20074;-77
2022/09/11 13:30:53;;;;;;;4.82;1.90;;;;;;;;;;4947435;29;20083;-78
2022/09/11 13:33:23;;;;;;;6.45;2.25;;;;;;;;;;4950314;29;20464;-80
2022/09/11 13:35:50;;;;;;;5.32;2.25;;;;;;;;;;4950493;29;20111;-79
2022/09/11 13:38:26;;;;;;;4.82;1.90;;;;;;;;;;4951033;29;20134;-79
2022/09/11 13:40:53;;;;;;;5.47;1.90;;;;;;;;;;4945042;29;20460;-79
2022/09/11 13:43:34;;;;;;;4.93;1.77;;;;;;;;;;4946752;28;20461;-80
2022/09/11 13:46:15;;;;;;;6.53;2.00;;;;;;;;;;4952706;28;20722;-79
2022/09/11 13:48:43;;;;;;;6.40;1.90;;;;;;;;;;4949001;29;20485;-79
2022/09/11 13:51:18;;;;;;;9.88;2.40;;;;;;;;;;4945480;28;20229;-78
2022/09/11 13:53:48;;;;;;;8.40;1.90;;;;;;;;;;4943886;28;20535;-77
2022/09/11 13:56:46;;;;;;;4.97;1.80;;;;;;;;;;4948988;29;20101;-79
2022/09/11 13:59:45;;;;;;;3.60;1.70;;;;;;;;;;4948522;29;20119;-80
2022/09/11 14:02:19;;;;;;;7.40;2.03;;;;;;;;;;4926630;28;20057;-78
2022/09/11 14:04:46;;;;;;;8.38;2.03;;;;;;;;;;4948312;29;20066;-80
2022/09/11 14:07:25;;;;;;;7.18;2.13;;;;;;;;;;4947875;29;20054;-79
2022/09/11 14:09:59;;;;;;;6.72;1.67;;;;;;;;;;4945673;28;20258;-80
2022/09/11 14:12:27;;;;;;;6.78;1.70;;;;;;;;;;4947653;28;20565;-78
2022/09/11 14:14:56;;;;;;;5.68;1.70;;;;;;;;;;4950694;29;20058;-78
2022/09/11 14:17:23;;;;;;;4.78;1.67;;;;;;;;;;4947532;28;20086;-78
2022/09/11 14:19:51;;;;;;;4.43;1.45;;;;;;;;;;4949617;28;20349;-77
2022/09/11 14:22:29;;;;;;;4.40;1.60;;;;;;;;;;4944418;28;20485;-77
2022/09/11 14:25:18;;;;;;;5.15;1.50;;;;;;;;;;4949549;29;20063;-80
2022/09/11 14:27:44;;;;;;;7.22;1.60;;;;;;;;;;4953264;28;20492;-77
2022/09/11 14:30:22;;;;;;;7.00;1.60;;;;;;;;;;4948288;29;20061;-78
2022/09/11 14:33:14;;;;;;;7.88;1.75;;;;;;;;;;4948751;29;20059;-78
2022/09/11 14:35:42;;;;;;;5.38;1.48;;;;;;;;;;4951611;28;20068;-80
2022/09/11 14:38:11;;;;;;;5.50;1.33;;;;;;;;;;4954251;29;20055;-78
2022/09/11 14:40:42;;;;;;;6.43;1.83;;;;;;;;;;4952182;29;21153;-79
2022/09/11 14:43:10;;;;;;;6.20;1.48;;;;;;;;;;4951037;29;20454;-78
2022/09/11 14:45:37;;;;;;;6.15;1.50;;;;;;;;;;4950091;29;20044;-79
2022/09/11 14:48:10;;;;;;;5.60;1.70;;;;;;;;;;4953760;29;20110;-74
2022/09/11 14:50:37;;;;;;;7.70;1.75;;;;;;;;;;4947170;28;20090;-78
2022/09/11 14:53:03;;;;;;;4.38;1.60;;;;;;;;;;4952376;28;20382;-79
2022/09/11 14:55:29;;;;;;;6.53;1.38;;;;;;;;;;4952259;28;20130;-78
2022/09/11 14:57:55;;;;;;;5.78;1.33;;;;;;;;;;4949248;29;20062;-75
2022/09/11 15:00:22;;;;;;;5.50;1.70;;;;;;;;;;4946541;29;20592;-77
2022/09/11 15:02:47;;;;;;;6.82;1.90;;;;;;;;;;4949468;29;20043;-79
2022/09/11 15:05:17;;;;;;;5.05;1.35;;;;;;;;;;4948076;28;20402;-77
2022/09/11 15:07:44;;;;;;;7.60;1.80;;;;;;;;;;4958333;28;20061;-77
2022/09/11 15:10:11;;;;;;;7.50;1.70;;;;;;;;;;4950930;28;20055;-79
2022/09/11 15:12:38;;;;;;;4.18;1.10;;;;;;;;;;4947712;29;20078;-77
2022/09/11 15:15:04;;;;;;;3.22;1.30;;;;;;;;;;4946320;28;20047;-79